sensor_id;sensor_type;location;lat;lon;timestamp;pressure;altitude;pressure_sealevel;temperature;humidity
72585;BME280;60618;40.084;32.908;2022-12-29T00:00:42;90494.09;;;1.62;86.20
72585;BME280;60618;40.084;32.908;2022-12-29T00:03:09;90495.81;;;1.76;84.65
72585;BME280;60618;40.084;32.908;2022-12-29T00:05:36;90493.91;;;1.80;84.56
72585;BME280;60618;40.084;32.908;2022-12-29T00:08:03;90499.63;;;1.72;84.00
72585;BME280;60618;40.084;32.908;2022-12-29T00:10:30;90499.59;;;1.75;83.83
72585;BME280;60618;40.084;32.908;2022-12-29T00:12:57;90504.41;;;1.80;83.80
72585;BME280;60618;40.084;32.908;2022-12-29T00:15:24;90498.38;;;1.83;83.78
72585;BME280;60618;40.084;32.908;2022-12-29T00:17:51;90499.09;;;1.84;83.71
72585;BME280;60618;40.084;32.908;2022-12-29T00:20:18;90493.06;;;1.87;83.42
72585;BME280;60618;40.084;32.908;2022-12-29T00:22:45;90511.03;;;1.92;83.34
72585;BME280;60618;40.084;32.908;2022-12-29T00:25:13;90507.22;;;1.96;82.87
72585;BME280;60618;40.084;32.908;2022-12-29T00:27:40;90507.94;;;2.01;82.75
72585;BME280;60618;40.084;32.908;2022-12-29T00:30:10;90501.13;;;2.03;82.58
72585;BME280;60618;40.084;32.908;2022-12-29T00:32:37;90506.78;;;2.02;82.23
72585;BME280;60618;40.084;32.908;2022-12-29T00:35:04;90500.41;;;2.03;82.42
72585;BME280;60618;40.084;32.908;2022-12-29T00:37:31;90508.63;;;2.05;82.85
72585;BME280;60618;40.084;32.908;2022-12-29T00:39:59;90506.31;;;2.10;83.03
72585;BME280;60618;40.084;32.908;2022-12-29T00:42:26;90507.75;;;2.15;82.87
72585;BME280;60618;40.084;32.908;2022-12-29T00:44:53;90506.97;;;2.18;82.83
72585;BME280;60618;40.084;32.908;2022-12-29T00:47:19;90499.91;;;2.11;82.80
72585;BME280;60618;40.084;32.908;2022-12-29T00:49:46;90507.53;;;1.68;84.32
72585;BME280;60618;40.084;32.908;2022-12-29T00:52:13;90503.75;;;1.69;84.62
72585;BME280;60618;40.084;32.908;2022-12-29T00:54:41;90511.69;;;1.65;84.37
72585;BME280;60618;40.084;32.908;2022-12-29T00:57:09;90504.63;;;1.59;84.64
72585;BME280;60618;40.084;32.908;2022-12-29T00:59:40;90504.06;;;1.40;85.98
72585;BME280;60618;40.084;32.908;2022-12-29T01:02:08;90504.97;;;1.23;86.96
72585;BME280;60618;40.084;32.908;2022-12-29T01:04:36;90504.75;;;1.03;88.71
72585;BME280;60618;40.084;32.908;2022-12-29T01:07:03;90501.28;;;1.17;88.32
72585;BME280;60618;40.084;32.908;2022-12-29T01:09:31;90496.69;;;1.28;87.45
72585;BME280;60618;40.084;32.908;2022-12-29T01:11:58;90497.66;;;1.41;86.36
72585;BME280;60618;40.084;32.908;2022-12-29T01:14:26;90500.47;;;1.61;85.40
72585;BME280;60618;40.084;32.908;2022-12-29T01:16:53;90500.72;;;1.74;83.83
72585;BME280;60618;40.084;32.908;2022-12-29T01:19:21;90493.13;;;1.83;83.68
72585;BME280;60618;40.084;32.908;2022-12-29T01:21:48;90491.63;;;1.82;83.08
72585;BME280;60618;40.084;32.908;2022-12-29T01:24:17;90487.88;;;1.83;82.58
72585;BME280;60618;40.084;32.908;2022-12-29T01:26:44;90481.88;;;1.83;82.93
72585;BME280;60618;40.084;32.908;2022-12-29T01:29:11;90475.53;;;1.80;83.08
72585;BME280;60618;40.084;32.908;2022-12-29T01:31:39;90481.59;;;1.74;82.39
72585;BME280;60618;40.084;32.908;2022-12-29T01:34:06;90479.66;;;1.78;82.45
72585;BME280;60618;40.084;32.908;2022-12-29T01:36:33;90486.03;;;1.80;82.79
72585;BME280;60618;40.084;32.908;2022-12-29T01:39:00;90469.56;;;1.76;82.77
72585;BME280;60618;40.084;32.908;2022-12-29T01:41:27;90468.75;;;1.79;82.48
72585;BME280;60618;40.084;32.908;2022-12-29T01:43:57;90466.13;;;1.79;82.54
72585;BME280;60618;40.084;32.908;2022-12-29T01:49:12;90461.59;;;1.83;82.18
72585;BME280;60618;40.084;32.908;2022-12-29T01:51:48;90455.94;;;1.85;82.04
72585;BME280;60618;40.084;32.908;2022-12-29T01:54:23;90461.91;;;1.89;82.43
72585;BME280;60618;40.084;32.908;2022-12-29T01:56:53;90455.13;;;1.91;82.72
72585;BME280;60618;40.084;32.908;2022-12-29T01:59:25;90458.53;;;1.88;82.49
72585;BME280;60618;40.084;32.908;2022-12-29T02:01:54;90452.16;;;1.89;82.28
72585;BME280;60618;40.084;32.908;2022-12-29T02:04:23;90457.09;;;1.84;83.13
72585;BME280;60618;40.084;32.908;2022-12-29T02:06:58;90454.19;;;1.75;83.32
72585;BME280;60618;40.084;32.908;2022-12-29T02:09:27;90457.34;;;1.62;83.96
72585;BME280;60618;40.084;32.908;2022-12-29T02:11:54;90458.50;;;1.58;84.47
72585;BME280;60618;40.084;32.908;2022-12-29T02:14:22;90454.44;;;1.53;84.46
72585;BME280;60618;40.084;32.908;2022-12-29T02:17:10;90457.81;;;1.54;84.24
72585;BME280;60618;40.084;32.908;2022-12-29T02:20:07;90458.03;;;1.66;83.86
72585;BME280;60618;40.084;32.908;2022-12-29T02:31:52;90457.94;;;1.02;87.19
72585;BME280;60618;40.084;32.908;2022-12-29T02:37:35;90457.13;;;1.08;86.08
72585;BME280;60618;40.084;32.908;2022-12-29T02:42:53;90463.81;;;1.13;85.27
72585;BME280;60618;40.084;32.908;2022-12-29T02:48:15;90462.91;;;1.30;84.99
72585;BME280;60618;40.084;32.908;2022-12-29T02:51:01;90468.50;;;1.36;83.94
72585;BME280;60618;40.084;32.908;2022-12-29T02:53:32;90461.31;;;1.40;84.14
72585;BME280;60618;40.084;32.908;2022-12-29T02:55:59;90462.06;;;1.40;83.71
72585;BME280;60618;40.084;32.908;2022-12-29T02:58:26;90462.75;;;1.48;83.76
72585;BME280;60618;40.084;32.908;2022-12-29T03:12:30;90451.38;;;1.58;82.38
72585;BME280;60618;40.084;32.908;2022-12-29T03:15:06;90449.81;;;1.64;82.33
72585;BME280;60618;40.084;32.908;2022-12-29T03:20:20;90455.59;;;1.49;82.55
72585;BME280;60618;40.084;32.908;2022-12-29T03:22:51;90455.91;;;1.17;84.08
72585;BME280;60618;40.084;32.908;2022-12-29T03:25:30;90453.28;;;1.20;83.98
72585;BME280;60618;40.084;32.908;2022-12-29T03:28:11;90450.47;;;1.38;83.21
72585;BME280;60618;40.084;32.908;2022-12-29T03:30:39;90449.25;;;1.46;82.84
72585;BME280;60618;40.084;32.908;2022-12-29T03:33:10;90448.47;;;1.49;82.72
72585;BME280;60618;40.084;32.908;2022-12-29T03:35:42;90449.25;;;1.46;82.56
72585;BME280;60618;40.084;32.908;2022-12-29T03:38:18;90451.56;;;1.40;82.48
72585;BME280;60618;40.084;32.908;2022-12-29T03:40:54;90453.72;;;1.49;82.33
72585;BME280;60618;40.084;32.908;2022-12-29T03:43:23;90450.69;;;1.54;82.13
72585;BME280;60618;40.084;32.908;2022-12-29T03:45:51;90453.22;;;1.27;83.39
72585;BME280;60618;40.084;32.908;2022-12-29T03:48:18;90456.13;;;1.33;82.98
72585;BME280;60618;40.084;32.908;2022-12-29T03:50:45;90460.41;;;1.16;83.97
72585;BME280;60618;40.084;32.908;2022-12-29T03:53:12;90468.22;;;1.27;83.93
72585;BME280;60618;40.084;32.908;2022-12-29T03:55:39;90469.31;;;1.29;83.18
72585;BME280;60618;40.084;32.908;2022-12-29T03:58:06;90465.31;;;1.14;83.96
72585;BME280;60618;40.084;32.908;2022-12-29T04:00:33;90477.16;;;1.29;83.69
72585;BME280;60618;40.084;32.908;2022-12-29T04:03:00;90476.53;;;1.18;83.52
72585;BME280;60618;40.084;32.908;2022-12-29T04:05:27;90475.94;;;1.00;83.92
72585;BME280;60618;40.084;32.908;2022-12-29T04:07:55;90475.03;;;1.17;83.30
72585;BME280;60618;40.084;32.908;2022-12-29T04:10:22;90478.13;;;1.05;83.96
72585;BME280;60618;40.084;32.908;2022-12-29T04:12:48;90478.06;;;1.12;83.71
72585;BME280;60618;40.084;32.908;2022-12-29T04:15:18;90482.53;;;1.15;83.17
72585;BME280;60618;40.084;32.908;2022-12-29T04:17:45;90486.19;;;1.28;83.08
72585;BME280;60618;40.084;32.908;2022-12-29T04:20:12;90486.47;;;1.34;82.36
72585;BME280;60618;40.084;32.908;2022-12-29T04:22:39;90487.63;;;1.33;82.12
72585;BME280;60618;40.084;32.908;2022-12-29T04:25:07;90483.94;;;1.27;82.09
72585;BME280;60618;40.084;32.908;2022-12-29T04:27:34;90484.66;;;1.31;82.25
72585;BME280;60618;40.084;32.908;2022-12-29T04:30:01;90496.53;;;1.01;83.08
72585;BME280;60618;40.084;32.908;2022-12-29T04:32:28;90502.03;;;0.66;84.52
72585;BME280;60618;40.084;32.908;2022-12-29T04:34:55;90504.97;;;0.75;84.41
72585;BME280;60618;40.084;32.908;2022-12-29T04:37:22;90499.00;;;0.74;84.02
72585;BME280;60618;40.084;32.908;2022-12-29T04:39:49;90512.66;;;1.00;83.51
72585;BME280;60618;40.084;32.908;2022-12-29T04:42:16;90508.41;;;1.13;82.43
72585;BME280;60618;40.084;32.908;2022-12-29T04:44:43;90505.00;;;1.16;82.06
72585;BME280;60618;40.084;32.908;2022-12-29T04:47:10;90509.66;;;0.98;82.48
72585;BME280;60618;40.084;32.908;2022-12-29T04:49:37;90511.53;;;0.97;83.03
72585;BME280;60618;40.084;32.908;2022-12-29T04:52:04;90506.63;;;1.03;82.66
72585;BME280;60618;40.084;32.908;2022-12-29T04:54:33;90508.00;;;1.18;82.33
72585;BME280;60618;40.084;32.908;2022-12-29T04:56:59;90507.97;;;1.22;82.29
72585;BME280;60618;40.084;32.908;2022-12-29T04:59:26;90506.94;;;1.12;81.93
72585;BME280;60618;40.084;32.908;2022-12-29T05:01:53;90504.06;;;0.99;82.37
72585;BME280;60618;40.084;32.908;2022-12-29T05:04:20;90515.06;;;0.76;84.20
72585;BME280;60618;40.084;32.908;2022-12-29T05:06:50;90510.97;;;0.75;83.51
72585;BME280;60618;40.084;32.908;2022-12-29T05:09:18;90507.22;;;0.76;83.41
72585;BME280;60618;40.084;32.908;2022-12-29T05:11:51;90507.16;;;0.83;83.21
72585;BME280;60618;40.084;32.908;2022-12-29T05:14:18;90508.28;;;0.82;83.56
72585;BME280;60618;40.084;32.908;2022-12-29T05:16:48;90508.91;;;1.01;83.40
72585;BME280;60618;40.084;32.908;2022-12-29T05:19:14;90515.53;;;1.12;82.83
72585;BME280;60618;40.084;32.908;2022-12-29T05:21:42;90520.00;;;1.19;83.30
72585;BME280;60618;40.084;32.908;2022-12-29T05:24:09;90517.78;;;1.14;83.77
72585;BME280;60618;40.084;32.908;2022-12-29T05:26:36;90521.28;;;1.00;83.96
72585;BME280;60618;40.084;32.908;2022-12-29T05:29:03;90521.28;;;0.97;84.89
72585;BME280;60618;40.084;32.908;2022-12-29T05:31:30;90526.72;;;1.20;85.40
72585;BME280;60618;40.084;32.908;2022-12-29T05:33:57;90520.78;;;1.12;85.35
72585;BME280;60618;40.084;32.908;2022-12-29T05:36:24;90526.13;;;0.98;85.11
72585;BME280;60618;40.084;32.908;2022-12-29T05:38:51;90528.88;;;0.84;85.58
72585;BME280;60618;40.084;32.908;2022-12-29T05:41:18;90531.13;;;0.85;86.44
72585;BME280;60618;40.084;32.908;2022-12-29T05:43:45;90536.63;;;0.98;86.21
72585;BME280;60618;40.084;32.908;2022-12-29T05:46:12;90535.28;;;1.28;86.53
72585;BME280;60618;40.084;32.908;2022-12-29T05:48:40;90536.09;;;1.62;85.48
72585;BME280;60618;40.084;32.908;2022-12-29T05:51:06;90539.31;;;1.77;85.09
72585;BME280;60618;40.084;32.908;2022-12-29T05:53:33;90540.72;;;1.85;84.91
72585;BME280;60618;40.084;32.908;2022-12-29T05:56:00;90547.53;;;1.83;85.17
72585;BME280;60618;40.084;32.908;2022-12-29T05:58:27;90544.72;;;1.97;85.99
72585;BME280;60618;40.084;32.908;2022-12-29T06:00:54;90547.00;;;1.98;86.72
72585;BME280;60618;40.084;32.908;2022-12-29T06:03:21;90547.69;;;2.03;86.58
72585;BME280;60618;40.084;32.908;2022-12-29T06:05:49;90541.69;;;2.02;87.01
72585;BME280;60618;40.084;32.908;2022-12-29T06:08:15;90546.81;;;2.13;87.08
72585;BME280;60618;40.084;32.908;2022-12-29T06:10:43;90548.22;;;2.21;87.59
72585;BME280;60618;40.084;32.908;2022-12-29T06:13:10;90554.88;;;2.29;87.76
72585;BME280;60618;40.084;32.908;2022-12-29T06:15:37;90556.22;;;2.44;87.21
72585;BME280;60618;40.084;32.908;2022-12-29T06:18:04;90555.72;;;2.53;86.67
72585;BME280;60618;40.084;32.908;2022-12-29T06:20:31;90564.63;;;2.63;86.29
72585;BME280;60618;40.084;32.908;2022-12-29T06:22:58;90555.25;;;2.62;85.00
72585;BME280;60618;40.084;32.908;2022-12-29T06:25:25;90559.16;;;2.77;85.93
72585;BME280;60618;40.084;32.908;2022-12-29T06:27:52;90558.00;;;2.78;85.41
72585;BME280;60618;40.084;32.908;2022-12-29T06:30:19;90573.53;;;2.69;84.55
72585;BME280;60618;40.084;32.908;2022-12-29T06:32:46;90573.75;;;2.54;84.91
72585;BME280;60618;40.084;32.908;2022-12-29T06:35:13;90580.22;;;2.46;86.14
72585;BME280;60618;40.084;32.908;2022-12-29T06:37:40;90573.88;;;2.44;85.45
72585;BME280;60618;40.084;32.908;2022-12-29T06:40:07;90581.72;;;2.47;85.33
72585;BME280;60618;40.084;32.908;2022-12-29T06:42:34;90572.66;;;2.52;84.37
72585;BME280;60618;40.084;32.908;2022-12-29T06:45:02;90583.28;;;2.72;84.19
72585;BME280;60618;40.084;32.908;2022-12-29T06:47:29;90584.13;;;2.92;83.81
72585;BME280;60618;40.084;32.908;2022-12-29T06:49:56;90586.91;;;3.08;82.88
72585;BME280;60618;40.084;32.908;2022-12-29T06:52:22;90579.72;;;3.12;81.91
72585;BME280;60618;40.084;32.908;2022-12-29T06:54:50;90584.72;;;3.03;81.76
72585;BME280;60618;40.084;32.908;2022-12-29T06:57:17;90583.53;;;2.81;82.17
72585;BME280;60618;40.084;32.908;2022-12-29T06:59:44;90586.13;;;2.84;82.33
72585;BME280;60618;40.084;32.908;2022-12-29T07:02:11;90586.50;;;2.83;82.25
72585;BME280;60618;40.084;32.908;2022-12-29T07:04:38;90582.75;;;2.84;82.40
72585;BME280;60618;40.084;32.908;2022-12-29T07:07:05;90596.75;;;3.04;82.12
72585;BME280;60618;40.084;32.908;2022-12-29T07:09:32;90588.50;;;3.02;81.98
72585;BME280;60618;40.084;32.908;2022-12-29T07:11:59;90591.22;;;2.68;82.10
72585;BME280;60618;40.084;32.908;2022-12-29T07:14:26;90597.13;;;2.45;82.57
72585;BME280;60618;40.084;32.908;2022-12-29T07:16:53;90587.13;;;2.33;82.96
72585;BME280;60618;40.084;32.908;2022-12-29T07:19:20;90594.16;;;2.43;82.95
72585;BME280;60618;40.084;32.908;2022-12-29T07:21:47;90591.75;;;2.56;82.63
72585;BME280;60618;40.084;32.908;2022-12-29T07:24:14;90589.69;;;2.71;82.55
72585;BME280;60618;40.084;32.908;2022-12-29T07:26:41;90597.19;;;2.72;82.34
72585;BME280;60618;40.084;32.908;2022-12-29T07:29:08;90592.59;;;2.76;82.80
72585;BME280;60618;40.084;32.908;2022-12-29T07:31:35;90592.19;;;2.81;82.33
72585;BME280;60618;40.084;32.908;2022-12-29T07:34:02;90600.72;;;2.89;82.19
72585;BME280;60618;40.084;32.908;2022-12-29T07:36:29;90605.03;;;3.03;81.51
72585;BME280;60618;40.084;32.908;2022-12-29T07:39:00;90606.13;;;3.05;81.54
72585;BME280;60618;40.084;32.908;2022-12-29T07:41:27;90606.41;;;3.15;80.93
72585;BME280;60618;40.084;32.908;2022-12-29T07:43:54;90603.75;;;3.15;80.63
72585;BME280;60618;40.084;32.908;2022-12-29T07:46:21;90606.00;;;3.16;81.10
72585;BME280;60618;40.084;32.908;2022-12-29T07:49:08;90605.75;;;3.34;81.25
72585;BME280;60618;40.084;32.908;2022-12-29T07:51:35;90607.63;;;3.33;80.89
72585;BME280;60618;40.084;32.908;2022-12-29T07:54:02;90602.31;;;3.37;81.30
72585;BME280;60618;40.084;32.908;2022-12-29T07:56:29;90604.88;;;3.40;80.74
72585;BME280;60618;40.084;32.908;2022-12-29T07:58:58;90609.75;;;3.42;80.74
72585;BME280;60618;40.084;32.908;2022-12-29T08:01:25;90605.34;;;3.59;80.83
72585;BME280;60618;40.084;32.908;2022-12-29T08:03:52;90606.03;;;3.63;79.26
72585;BME280;60618;40.084;32.908;2022-12-29T08:06:23;90596.59;;;3.65;79.73
72585;BME280;60618;40.084;32.908;2022-12-29T08:08:50;90595.84;;;3.88;79.74
72585;BME280;60618;40.084;32.908;2022-12-29T08:11:17;90591.66;;;3.91;79.76
72585;BME280;60618;40.084;32.908;2022-12-29T08:13:43;90594.63;;;3.93;78.46
72585;BME280;60618;40.084;32.908;2022-12-29T08:16:10;90594.06;;;3.82;79.76
72585;BME280;60618;40.084;32.908;2022-12-29T08:18:38;90586.91;;;3.82;78.95
72585;BME280;60618;40.084;32.908;2022-12-29T08:21:05;90584.91;;;3.90;78.84
72585;BME280;60618;40.084;32.908;2022-12-29T08:23:32;90591.28;;;4.12;78.27
72585;BME280;60618;40.084;32.908;2022-12-29T08:26:01;90598.31;;;4.19;78.09
72585;BME280;60618;40.084;32.908;2022-12-29T08:28:28;90582.78;;;4.24;76.67
72585;BME280;60618;40.084;32.908;2022-12-29T08:30:59;90578.72;;;4.20;77.46
72585;BME280;60618;40.084;32.908;2022-12-29T08:33:28;90581.00;;;4.38;77.24
72585;BME280;60618;40.084;32.908;2022-12-29T08:36:02;90574.41;;;4.49;76.88
72585;BME280;60618;40.084;32.908;2022-12-29T08:38:30;90570.81;;;4.60;76.90
72585;BME280;60618;40.084;32.908;2022-12-29T08:40:58;90565.16;;;4.77;76.54
72585;BME280;60618;40.084;32.908;2022-12-29T08:43:26;90572.91;;;4.84;76.18
72585;BME280;60618;40.084;32.908;2022-12-29T08:45:54;90572.69;;;4.79;77.08
72585;BME280;60618;40.084;32.908;2022-12-29T08:48:21;90575.03;;;4.73;76.38
72585;BME280;60618;40.084;32.908;2022-12-29T08:50:48;90568.47;;;4.81;75.94
72585;BME280;60618;40.084;32.908;2022-12-29T08:53:16;90569.16;;;5.02;75.15
72585;BME280;60618;40.084;32.908;2022-12-29T08:55:47;90568.38;;;5.37;74.82
72585;BME280;60618;40.084;32.908;2022-12-29T08:58:28;90565.09;;;5.33;75.50
72585;BME280;60618;40.084;32.908;2022-12-29T09:00:56;90556.88;;;5.11;74.85
72585;BME280;60618;40.084;32.908;2022-12-29T09:03:24;90557.00;;;5.24;75.31
72585;BME280;60618;40.084;32.908;2022-12-29T09:06:11;90555.63;;;5.00;75.85
72585;BME280;60618;40.084;32.908;2022-12-29T09:08:39;90553.50;;;4.95;75.81
72585;BME280;60618;40.084;32.908;2022-12-29T09:11:16;90554.41;;;5.04;76.13
72585;BME280;60618;40.084;32.908;2022-12-29T09:13:44;90555.91;;;5.38;76.50
72585;BME280;60618;40.084;32.908;2022-12-29T09:16:11;90549.06;;;5.57;75.66
72585;BME280;60618;40.084;32.908;2022-12-29T09:18:38;90543.66;;;5.93;75.08
72585;BME280;60618;40.084;32.908;2022-12-29T09:21:06;90545.25;;;5.74;74.83
72585;BME280;60618;40.084;32.908;2022-12-29T09:23:34;90535.00;;;5.92;74.54
72585;BME280;60618;40.084;32.908;2022-12-29T09:26:01;90538.13;;;5.87;73.77
72585;BME280;60618;40.084;32.908;2022-12-29T09:28:28;90531.84;;;5.81;73.47
72585;BME280;60618;40.084;32.908;2022-12-29T09:30:57;90534.66;;;5.74;72.71
72585;BME280;60618;40.084;32.908;2022-12-29T09:33:24;90532.91;;;5.84;73.73
72585;BME280;60618;40.084;32.908;2022-12-29T09:35:56;90525.56;;;5.91;72.51
72585;BME280;60618;40.084;32.908;2022-12-29T09:38:25;90525.91;;;6.22;72.60
72585;BME280;60618;40.084;32.908;2022-12-29T09:40:55;90522.06;;;6.40;72.40
72585;BME280;60618;40.084;32.908;2022-12-29T09:43:47;90516.53;;;6.47;71.88
72585;BME280;60618;40.084;32.908;2022-12-29T09:46:27;90517.22;;;6.51;72.16
72585;BME280;60618;40.084;32.908;2022-12-29T09:51:41;90515.03;;;6.75;71.87
72585;BME280;60618;40.084;32.908;2022-12-29T09:54:47;90508.28;;;6.45;72.21
72585;BME280;60618;40.084;32.908;2022-12-29T09:57:57;90509.16;;;6.54;72.31
72585;BME280;60618;40.084;32.908;2022-12-29T10:03:48;90511.16;;;6.50;72.66
72585;BME280;60618;40.084;32.908;2022-12-29T10:11:49;90497.53;;;6.65;71.65
72585;BME280;60618;40.084;32.908;2022-12-29T10:14:38;90502.81;;;6.65;71.90
72585;BME280;60618;40.084;32.908;2022-12-29T10:17:36;90496.91;;;6.61;72.02
72585;BME280;60618;40.084;32.908;2022-12-29T10:20:44;90495.34;;;6.76;72.42
72585;BME280;60618;40.084;32.908;2022-12-29T10:23:26;90496.59;;;6.84;72.01
72585;BME280;60618;40.084;32.908;2022-12-29T10:25:56;90493.63;;;6.57;72.60
72585;BME280;60618;40.084;32.908;2022-12-29T10:31:16;90490.47;;;6.87;71.75
72585;BME280;60618;40.084;32.908;2022-12-29T10:33:51;90491.19;;;7.00;71.35
72585;BME280;60618;40.084;32.908;2022-12-29T10:36:34;90493.75;;;7.04;71.51
72585;BME280;60618;40.084;32.908;2022-12-29T10:41:45;90490.03;;;7.01;72.20
72585;BME280;60618;40.084;32.908;2022-12-29T10:44:15;90482.72;;;7.05;71.70
72585;BME280;60618;40.084;32.908;2022-12-29T10:46:54;90483.69;;;7.11;70.04
72585;BME280;60618;40.084;32.908;2022-12-29T10:49:23;90483.44;;;7.19;69.71
72585;BME280;60618;40.084;32.908;2022-12-29T10:51:55;90479.94;;;7.09;70.12
72585;BME280;60618;40.084;32.908;2022-12-29T10:54:33;90475.31;;;7.13;69.37
72585;BME280;60618;40.084;32.908;2022-12-29T10:59:54;90477.69;;;7.46;69.02
72585;BME280;60618;40.084;32.908;2022-12-29T11:08:21;90472.66;;;7.60;69.12
72585;BME280;60618;40.084;32.908;2022-12-29T11:11:02;90475.88;;;7.55;68.65
72585;BME280;60618;40.084;32.908;2022-12-29T11:13:35;90468.38;;;7.41;68.29
72585;BME280;60618;40.084;32.908;2022-12-29T11:16:12;90459.47;;;7.35;69.40
72585;BME280;60618;40.084;32.908;2022-12-29T11:18:40;90466.19;;;7.61;68.10
72585;BME280;60618;40.084;32.908;2022-12-29T11:24:02;90455.97;;;7.73;66.66
72585;BME280;60618;40.084;32.908;2022-12-29T11:26:31;90457.47;;;7.74;65.86
72585;BME280;60618;40.084;32.908;2022-12-29T11:29:21;90461.69;;;7.84;66.25
72585;BME280;60618;40.084;32.908;2022-12-29T11:31:57;90464.63;;;7.86;65.59
72585;BME280;60618;40.084;32.908;2022-12-29T11:34:33;90458.47;;;7.89;65.12
72585;BME280;60618;40.084;32.908;2022-12-29T11:37:14;90457.78;;;7.97;65.41
72585;BME280;60618;40.084;32.908;2022-12-29T11:39:56;90461.25;;;8.07;65.50
72585;BME280;60618;40.084;32.908;2022-12-29T11:42:35;90454.78;;;8.08;65.21
72585;BME280;60618;40.084;32.908;2022-12-29T11:45:23;90450.34;;;8.05;64.90
72585;BME280;60618;40.084;32.908;2022-12-29T11:48:09;90452.00;;;8.12;64.69
72585;BME280;60618;40.084;32.908;2022-12-29T11:50:41;90447.00;;;8.14;64.15
72585;BME280;60618;40.084;32.908;2022-12-29T11:53:17;90447.00;;;8.14;64.52
72585;BME280;60618;40.084;32.908;2022-12-29T11:55:58;90444.50;;;8.10;64.47
72585;BME280;60618;40.084;32.908;2022-12-29T11:58:30;90450.34;;;8.05;63.80
72585;BME280;60618;40.084;32.908;2022-12-29T12:01:13;90453.19;;;8.11;65.19
72585;BME280;60618;40.084;32.908;2022-12-29T12:04:01;90455.72;;;8.14;64.11
72585;BME280;60618;40.084;32.908;2022-12-29T12:06:29;90443.41;;;8.08;63.90
72585;BME280;60618;40.084;32.908;2022-12-29T12:09:24;90436.78;;;8.03;65.28
72585;BME280;60618;40.084;32.908;2022-12-29T12:11:52;90440.34;;;8.09;65.10
72585;BME280;60618;40.084;32.908;2022-12-29T12:14:25;90440.59;;;8.02;65.60
72585;BME280;60618;40.084;32.908;2022-12-29T12:17:00;90450.56;;;7.98;65.55
72585;BME280;60618;40.084;32.908;2022-12-29T12:22:13;90445.16;;;8.02;65.41
72585;BME280;60618;40.084;32.908;2022-12-29T12:24:58;90444.09;;;7.99;65.38
72585;BME280;60618;40.084;32.908;2022-12-29T12:27:30;90448.50;;;7.93;65.46
72585;BME280;60618;40.084;32.908;2022-12-29T12:30:18;90446.75;;;7.99;65.56
72585;BME280;60618;40.084;32.908;2022-12-29T12:33:02;90449.78;;;8.10;64.79
72585;BME280;60618;40.084;32.908;2022-12-29T12:41:13;90454.09;;;7.95;65.55
72585;BME280;60618;40.084;32.908;2022-12-29T13:01:11;90468.94;;;7.71;65.75
72585;BME280;60618;40.084;32.908;2022-12-29T13:09:48;90476.94;;;7.58;66.25
72585;BME280;60618;40.084;32.908;2022-12-29T13:12:48;90478.63;;;7.52;66.58
72585;BME280;60618;40.084;32.908;2022-12-29T13:15:26;90481.09;;;7.46;66.90
72585;BME280;60618;40.084;32.908;2022-12-29T13:21:27;90482.16;;;7.36;67.69
72585;BME280;60618;40.084;32.908;2022-12-29T13:35:47;90489.59;;;7.28;67.92
72585;BME280;60618;40.084;32.908;2022-12-29T13:38:30;90482.59;;;7.22;68.70
72585;BME280;60618;40.084;32.908;2022-12-29T13:41:08;90484.00;;;7.14;68.11
72585;BME280;60618;40.084;32.908;2022-12-29T13:43:38;90482.72;;;7.05;68.57
72585;BME280;60618;40.084;32.908;2022-12-29T13:46:22;90485.50;;;7.02;68.50
72585;BME280;60618;40.084;32.908;2022-12-29T13:48:55;90491.72;;;6.95;69.46
72585;BME280;60618;40.084;32.908;2022-12-29T13:51:26;90491.19;;;6.88;69.35
72585;BME280;60618;40.084;32.908;2022-12-29T13:54:18;90488.97;;;6.86;69.67
72585;BME280;60618;40.084;32.908;2022-12-29T13:59:40;90497.63;;;6.74;70.36
72585;BME280;60618;40.084;32.908;2022-12-29T14:05:02;90495.41;;;6.72;70.34
72585;BME280;60618;40.084;32.908;2022-12-29T14:07:36;90485.69;;;6.69;70.99
72585;BME280;60618;40.084;32.908;2022-12-29T14:10:05;90491.72;;;6.70;70.87
72585;BME280;60618;40.084;32.908;2022-12-29T14:12:41;90489.50;;;6.81;70.53
72585;BME280;60618;40.084;32.908;2022-12-29T14:17:36;90494.16;;;6.90;69.76
72585;BME280;60618;40.084;32.908;2022-12-29T14:20:15;90491.72;;;6.82;69.60
72585;BME280;60618;40.084;32.908;2022-12-29T14:22:58;90488.75;;;6.80;69.93
72585;BME280;60618;40.084;32.908;2022-12-29T14:25:54;90485.38;;;6.80;69.93
72585;BME280;60618;40.084;32.908;2022-12-29T14:28:30;90494.78;;;6.68;70.50
72585;BME280;60618;40.084;32.908;2022-12-29T14:37:03;90502.63;;;6.59;71.10
72585;BME280;60618;40.084;32.908;2022-12-29T14:39:45;90501.56;;;6.57;70.81
72585;BME280;60618;40.084;32.908;2022-12-29T14:42:19;90509.78;;;6.46;71.59
72585;BME280;60618;40.084;32.908;2022-12-29T14:45:06;90495.59;;;6.52;71.09
72585;BME280;60618;40.084;32.908;2022-12-29T14:47:36;90500.28;;;6.48;71.18
72585;BME280;60618;40.084;32.908;2022-12-29T14:52:53;90502.25;;;6.32;71.95
72585;BME280;60618;40.084;32.908;2022-12-29T14:55:44;90510.91;;;6.32;71.61
72585;BME280;60618;40.084;32.908;2022-12-29T14:58:37;90507.63;;;6.28;72.38
72585;BME280;60618;40.084;32.908;2022-12-29T15:01:31;90518.06;;;6.19;72.41
72585;BME280;60618;40.084;32.908;2022-12-29T15:04:26;90520.38;;;6.17;72.75
72585;BME280;60618;40.084;32.908;2022-12-29T15:06:58;90512.84;;;6.03;72.79
72585;BME280;60618;40.084;32.908;2022-12-29T15:09:31;90517.31;;;5.89;73.72
72585;BME280;60618;40.084;32.908;2022-12-29T15:14:56;90508.16;;;5.78;74.46
72585;BME280;60618;40.084;32.908;2022-12-29T15:17:29;90517.56;;;5.79;74.58
72585;BME280;60618;40.084;32.908;2022-12-29T15:19:58;90514.25;;;5.75;74.74
72585;BME280;60618;40.084;32.908;2022-12-29T15:22:25;90507.50;;;5.74;74.32
72585;BME280;60618;40.084;32.908;2022-12-29T15:24:54;90512.63;;;5.64;74.88
72585;BME280;60618;40.084;32.908;2022-12-29T15:27:24;90509.56;;;5.66;74.89
72585;BME280;60618;40.084;32.908;2022-12-29T15:29:57;90503.53;;;5.65;74.28
72585;BME280;60618;40.084;32.908;2022-12-29T15:32:29;90512.56;;;5.68;74.98